sensor_id;sensor_type;location;lat;lon;timestamp;pressure;altitude;pressure_sealevel;temperature;humidity
27032;BME280;14580;52.918;9.214;2023-02-28T00:01:43;61451.03;;;-140.63;100.00
27032;BME280;14580;52.918;9.214;2023-02-28T00:05:09;61451.03;;;-140.63;100.00
27032;BME280;14580;52.918;9.214;2023-02-28T00:08:35;61451.03;;;-140.63;100.00
27032;BME280;14580;52.918;9.214;2023-02-28T00:12:06;61451.03;;;-140.63;100.00
27032;BME280;14580;52.918;9.214;2023-02-28T00:15:34;61451.03;;;-140.63;100.00
27032;BME280;14580;52.918;9.214;2023-02-28T00:19:00;61451.03;;;-140.63;100.00
27032;BME280;14580;52.918;9.214;2023-02-28T00:22:28;61451.03;;;-140.63;100.00
27032;BME280;14580;52.918;9.214;2023-02-28T00:25:53;61451.03;;;-140.63;100.00
27032;BME280;14580;52.918;9.214;2023-02-28T00:29:18;61451.03;;;-140.63;100.00
27032;BME280;14580;52.918;9.214;2023-02-28T00:32:35;79528.31;;;-140.63;100.00
27032;BME280;14580;52.918;9.214;2023-02-28T00:36:03;61451.03;;;-140.63;100.00
27032;BME280;14580;52.918;9.214;2023-02-28T00:39:29;61451.03;;;-140.63;100.00
27032;BME280;14580;52.918;9.214;2023-02-28T00:42:54;61451.03;;;-140.63;100.00
27032;BME280;14580;52.918;9.214;2023-02-28T00:46:19;61451.03;;;-140.63;100.00
27032;BME280;14580;52.918;9.214;2023-02-28T00:49:44;61451.03;;;-140.63;100.00
27032;BME280;14580;52.918;9.214;2023-02-28T00:52:17;61451.03;;;-140.63;100.00
27032;BME280;14580;52.918;9.214;2023-02-28T00:54:44;61451.03;;;-140.63;100.00
27032;BME280;14580;52.918;9.214;2023-02-28T00:57:10;61451.03;;;-140.63;100.00
27032;BME280;14580;52.918;9.214;2023-02-28T00:59:36;61451.03;;;-140.63;100.00
27032;BME280;14580;52.918;9.214;2023-02-28T01:02:03;61451.03;;;-140.63;100.00
27032;BME280;14580;52.918;9.214;2023-02-28T01:04:30;61451.03;;;-140.63;100.00
27032;BME280;14580;52.918;9.214;2023-02-28T01:06:57;61451.03;;;-140.63;100.00
27032;BME280;14580;52.918;9.214;2023-02-28T01:09:23;61451.03;;;-140.63;100.00
27032;BME280;14580;52.918;9.214;2023-02-28T01:11:50;61451.03;;;-140.63;100.00
27032;BME280;14580;52.918;9.214;2023-02-28T01:14:17;61451.03;;;-140.63;100.00
27032;BME280;14580;52.918;9.214;2023-02-28T01:16:44;61451.03;;;-140.63;100.00
27032;BME280;14580;52.918;9.214;2023-02-28T01:19:11;61451.03;;;-140.63;100.00
27032;BME280;14580;52.918;9.214;2023-02-28T01:22:36;61451.03;;;-140.63;100.00
27032;BME280;14580;52.918;9.214;2023-02-28T01:26:08;61451.03;;;-140.63;100.00
27032;BME280;14580;52.918;9.214;2023-02-28T01:29:33;61451.03;;;-140.63;100.00
27032;BME280;14580;52.918;9.214;2023-02-28T01:32:58;61451.03;;;-140.63;100.00
27032;BME280;14580;52.918;9.214;2023-02-28T01:36:24;61451.03;;;-140.63;100.00
27032;BME280;14580;52.918;9.214;2023-02-28T01:39:49;61451.03;;;-140.63;100.00
27032;BME280;14580;52.918;9.214;2023-02-28T01:43:27;61451.03;;;-140.63;100.00
27032;BME280;14580;52.918;9.214;2023-02-28T01:46:53;61451.03;;;-140.63;100.00
27032;BME280;14580;52.918;9.214;2023-02-28T01:50:19;61451.03;;;-140.63;100.00
27032;BME280;14580;52.918;9.214;2023-02-28T01:53:47;61451.03;;;-140.63;100.00
27032;BME280;14580;52.918;9.214;2023-02-28T01:57:18;61451.03;;;-140.63;100.00
27032;BME280;14580;52.918;9.214;2023-02-28T02:00:52;61451.03;;;-140.63;100.00
27032;BME280;14580;52.918;9.214;2023-02-28T02:04:18;61451.03;;;-140.63;100.00
27032;BME280;14580;52.918;9.214;2023-02-28T02:07:47;61451.03;;;-140.63;100.00
27032;BME280;14580;52.918;9.214;2023-02-28T02:11:17;61451.03;;;-140.63;100.00
27032;BME280;14580;52.918;9.214;2023-02-28T02:15:05;61451.03;;;-140.63;100.00
27032;BME280;14580;52.918;9.214;2023-02-28T02:31:10;61451.03;;;-140.63;100.00
27032;BME280;14580;52.918;9.214;2023-02-28T02:39:54;61451.03;;;-140.63;100.00
27032;BME280;14580;52.918;9.214;2023-02-28T02:43:53;101275.78;;;2.25;86.75
27032;BME280;14580;52.918;9.214;2023-02-28T02:46:12;103250.94;;;2.25;86.75
27032;BME280;14580;52.918;9.214;2023-02-28T02:49:40;61451.03;;;-140.63;100.00
27032;BME280;14580;52.918;9.214;2023-02-28T02:52:45;61451.03;;;-140.63;100.00
27032;BME280;14580;52.918;9.214;2023-02-28T02:55:16;61451.03;;;-140.63;100.00
27032;BME280;14580;52.918;9.214;2023-02-28T02:58:40;-14231.00;;;-140.63;100.00
27032;BME280;14580;52.918;9.214;2023-02-28T03:01:14;61451.03;;;-140.63;100.00
27032;BME280;14580;52.918;9.214;2023-02-28T03:03:43;61451.03;;;-140.63;100.00
27032;BME280;14580;52.918;9.214;2023-02-28T03:06:11;61451.03;;;-140.63;100.00
27032;BME280;14580;52.918;9.214;2023-02-28T03:08:38;61451.03;;;-140.63;100.00
27032;BME280;14580;52.918;9.214;2023-02-28T03:11:11;61451.03;;;-140.63;100.00
27032;BME280;14580;52.918;9.214;2023-02-28T03:14:07;61451.03;;;-140.63;100.00
27032;BME280;14580;52.918;9.214;2023-02-28T03:17:21;61451.03;;;-140.63;100.00
27032;BME280;14580;52.918;9.214;2023-02-28T03:20:23;61451.03;;;-140.63;100.00
27032;BME280;14580;52.918;9.214;2023-02-28T03:26:32;61451.03;;;-140.63;100.00
27032;BME280;14580;52.918;9.214;2023-02-28T03:29:22;61451.03;;;-140.63;100.00
27032;BME280;14580;52.918;9.214;2023-02-28T03:32:57;61451.03;;;-140.63;100.00
27032;BME280;14580;52.918;9.214;2023-02-28T03:35:59;61451.03;;;-140.63;100.00
27032;BME280;14580;52.918;9.214;2023-02-28T03:39:44;61451.03;;;-140.63;100.00
27032;BME280;14580;52.918;9.214;2023-02-28T03:43:12;61451.03;;;-140.63;100.00
27032;BME280;14580;52.918;9.214;2023-02-28T03:46:30;61451.03;;;-140.63;100.00
27032;BME280;14580;52.918;9.214;2023-02-28T03:50:18;61451.03;;;-140.63;100.00
27032;BME280;14580;52.918;9.214;2023-02-28T03:54:22;61451.03;;;-140.63;100.00
27032;BME280;14580;52.918;9.214;2023-02-28T03:58:11;61451.03;;;-140.63;100.00
27032;BME280;14580;52.918;9.214;2023-02-28T04:01:41;61451.03;;;-140.63;100.00
27032;BME280;14580;52.918;9.214;2023-02-28T04:05:09;61451.03;;;-140.63;100.00
27032;BME280;14580;52.918;9.214;2023-02-28T04:08:17;61451.03;;;-140.63;100.00
27032;BME280;14580;52.918;9.214;2023-02-28T04:11:47;61451.03;;;-140.63;100.00
27032;BME280;14580;52.918;9.214;2023-02-28T04:15:16;61451.03;;;-140.63;100.00
27032;BME280;14580;52.918;9.214;2023-02-28T04:18:30;61451.03;;;-140.63;100.00
27032;BME280;14580;52.918;9.214;2023-02-28T04:21:58;61451.03;;;-140.63;100.00
27032;BME280;14580;52.918;9.214;2023-02-28T04:25:26;61451.03;;;-140.63;100.00
27032;BME280;14580;52.918;9.214;2023-02-28T04:28:43;61451.03;;;-140.63;100.00
27032;BME280;14580;52.918;9.214;2023-02-28T04:32:06;61451.03;;;-140.63;100.00
27032;BME280;14580;52.918;9.214;2023-02-28T04:35:22;61451.03;;;-140.63;100.00
27032;BME280;14580;52.918;9.214;2023-02-28T04:38:47;61451.03;;;-140.63;100.00
27032;BME280;14580;52.918;9.214;2023-02-28T04:42:13;61451.03;;;-140.63;100.00
27032;BME280;14580;52.918;9.214;2023-02-28T04:45:38;61451.03;;;-140.63;100.00
27032;BME280;14580;52.918;9.214;2023-02-28T04:48:05;62461.50;;;-0.64;92.16
27032;BME280;14580;52.918;9.214;2023-02-28T04:50:32;61451.03;;;-140.63;100.00
27032;BME280;14580;52.918;9.214;2023-02-28T04:53:02;61451.03;;;-140.63;100.00
27032;BME280;14580;52.918;9.214;2023-02-28T04:55:52;61451.03;;;-140.63;100.00
27032;BME280;14580;52.918;9.214;2023-02-28T04:58:40;61451.03;;;-140.63;100.00
27032;BME280;14580;52.918;9.214;2023-02-28T05:01:46;62461.50;;;-0.64;92.16
27032;BME280;14580;52.918;9.214;2023-02-28T05:04:14;61451.03;;;-140.63;100.00
27032;BME280;14580;52.918;9.214;2023-02-28T05:06:43;61451.03;;;-140.63;100.00
27032;BME280;14580;52.918;9.214;2023-02-28T05:09:11;61451.03;;;-140.63;100.00
27032;BME280;14580;52.918;9.214;2023-02-28T05:12:38;61451.03;;;-140.63;100.00
27032;BME280;14580;52.918;9.214;2023-02-28T05:16:04;61451.03;;;-140.63;100.00
27032;BME280;14580;52.918;9.214;2023-02-28T05:19:29;61451.03;;;-140.63;100.00
27032;BME280;14580;52.918;9.214;2023-02-28T05:22:55;61451.03;;;-140.63;100.00
27032;BME280;14580;52.918;9.214;2023-02-28T05:25:34;61451.03;;;-140.63;100.00
27032;BME280;14580;52.918;9.214;2023-02-28T05:29:00;61451.03;;;-140.63;100.00
27032;BME280;14580;52.918;9.214;2023-02-28T05:32:26;61451.03;;;-140.63;100.00
27032;BME280;14580;52.918;9.214;2023-02-28T05:35:34;61451.03;;;-140.63;100.00
27032;BME280;14580;52.918;9.214;2023-02-28T05:39:03;61451.03;;;-140.63;100.00
27032;BME280;14580;52.918;9.214;2023-02-28T05:42:30;61451.03;;;-140.63;100.00
27032;BME280;14580;52.918;9.214;2023-02-28T05:45:56;61451.03;;;-140.63;100.00
27032;BME280;14580;52.918;9.214;2023-02-28T05:49:22;61451.03;;;-140.63;100.00
27032;BME280;14580;52.918;9.214;2023-02-28T05:52:52;61451.03;;;-140.63;100.00
27032;BME280;14580;52.918;9.214;2023-02-28T05:56:18;61451.03;;;-140.63;100.00
27032;BME280;14580;52.918;9.214;2023-02-28T05:59:43;61451.03;;;-140.63;100.00
27032;BME280;14580;52.918;9.214;2023-02-28T06:03:14;61451.03;;;-140.63;100.00
27032;BME280;14580;52.918;9.214;2023-02-28T06:06:40;61451.03;;;-140.63;100.00
27032;BME280;14580;52.918;9.214;2023-02-28T06:10:06;61451.03;;;-140.63;100.00
27032;BME280;14580;52.918;9.214;2023-02-28T06:13:31;61451.03;;;-140.63;100.00
27032;BME280;14580;52.918;9.214;2023-02-28T06:16:59;61451.03;;;-140.63;100.00
27032;BME280;14580;52.918;9.214;2023-02-28T06:20:26;61451.03;;;-140.63;100.00
27032;BME280;14580;52.918;9.214;2023-02-28T06:23:55;61451.03;;;-140.63;100.00
27032;BME280;14580;52.918;9.214;2023-02-28T06:27:21;61451.03;;;-140.63;100.00
27032;BME280;14580;52.918;9.214;2023-02-28T06:30:46;61451.03;;;-140.63;100.00
27032;BME280;14580;52.918;9.214;2023-02-28T06:34:11;61451.03;;;-140.63;100.00
27032;BME280;14580;52.918;9.214;2023-02-28T06:37:40;61451.03;;;-140.63;100.00
27032;BME280;14580;52.918;9.214;2023-02-28T06:41:07;61451.03;;;-140.63;100.00
27032;BME280;14580;52.918;9.214;2023-02-28T06:44:35;61451.03;;;-140.63;100.00
27032;BME280;14580;52.918;9.214;2023-02-28T06:48:02;61451.03;;;-140.63;100.00
27032;BME280;14580;52.918;9.214;2023-02-28T06:51:27;61451.03;;;-140.63;100.00
27032;BME280;14580;52.918;9.214;2023-02-28T06:54:52;61451.03;;;-140.63;100.00
27032;BME280;14580;52.918;9.214;2023-02-28T06:58:28;61451.03;;;-140.63;100.00
27032;BME280;14580;52.918;9.214;2023-02-28T07:01:52;61451.03;;;-140.63;100.00
27032;BME280;14580;52.918;9.214;2023-02-28T07:05:19;61451.03;;;-140.63;100.00
27032;BME280;14580;52.918;9.214;2023-02-28T07:08:44;61451.03;;;-140.63;100.00
27032;BME280;14580;52.918;9.214;2023-02-28T07:12:10;61451.03;;;-140.63;100.00
27032;BME280;14580;52.918;9.214;2023-02-28T07:15:36;61451.03;;;-140.63;100.00
27032;BME280;14580;52.918;9.214;2023-02-28T07:19:01;61451.03;;;-140.63;100.00
27032;BME280;14580;52.918;9.214;2023-02-28T07:22:26;61451.03;;;-140.63;100.00
27032;BME280;14580;52.918;9.214;2023-02-28T07:25:52;61451.03;;;-140.63;100.00
27032;BME280;14580;52.918;9.214;2023-02-28T07:29:17;61451.03;;;-140.63;100.00
27032;BME280;14580;52.918;9.214;2023-02-28T07:32:42;61451.03;;;-140.63;100.00
27032;BME280;14580;52.918;9.214;2023-02-28T07:36:09;61451.03;;;-140.63;100.00
27032;BME280;14580;52.918;9.214;2023-02-28T07:39:38;61451.03;;;-140.63;100.00
27032;BME280;14580;52.918;9.214;2023-02-28T07:43:06;61451.03;;;-140.63;100.00
27032;BME280;14580;52.918;9.214;2023-02-28T07:46:32;61451.03;;;-140.63;100.00
27032;BME280;14580;52.918;9.214;2023-02-28T07:50:00;61451.03;;;-140.63;100.00
27032;BME280;14580;52.918;9.214;2023-02-28T07:52:41;61451.03;;;-140.63;100.00
27032;BME280;14580;52.918;9.214;2023-02-28T07:56:08;61451.03;;;-140.63;100.00
27032;BME280;14580;52.918;9.214;2023-02-28T07:59:35;61451.03;;;-140.63;100.00
27032;BME280;14580;52.918;9.214;2023-02-28T08:02:27;49091.22;;;-0.64;100.00
27032;BME280;14580;52.918;9.214;2023-02-28T08:04:54;61451.03;;;-140.63;100.00
27032;BME280;14580;52.918;9.214;2023-02-28T08:07:24;62461.50;;;-0.64;92.16
27032;BME280;14580;52.918;9.214;2023-02-28T08:09:50;61451.03;;;-140.63;100.00
27032;BME280;14580;52.918;9.214;2023-02-28T08:12:17;61451.03;;;-140.63;100.00
27032;BME280;14580;52.918;9.214;2023-02-28T08:14:49;61451.03;;;-140.63;100.00
27032;BME280;14580;52.918;9.214;2023-02-28T08:17:21;61451.03;;;-140.63;100.00
27032;BME280;14580;52.918;9.214;2023-02-28T08:20:47;61451.03;;;-140.63;100.00
27032;BME280;14580;52.918;9.214;2023-02-28T08:24:08;61451.03;;;-140.63;100.00
27032;BME280;14580;52.918;9.214;2023-02-28T08:27:00;61451.03;;;-140.63;100.00
27032;BME280;14580;52.918;9.214;2023-02-28T08:30:12;61451.03;;;-140.63;100.00
27032;BME280;14580;52.918;9.214;2023-02-28T08:32:42;61451.03;;;-140.63;100.00
27032;BME280;14580;52.918;9.214;2023-02-28T08:35:10;61451.03;;;-140.63;100.00
27032;BME280;14580;52.918;9.214;2023-02-28T08:37:40;61451.03;;;-140.63;100.00
27032;BME280;14580;52.918;9.214;2023-02-28T08:40:07;61451.03;;;-140.63;100.00
27032;BME280;14580;52.918;9.214;2023-02-28T08:42:34;61451.03;;;-140.63;100.00
27032;BME280;14580;52.918;9.214;2023-02-28T08:45:00;61451.03;;;-140.63;100.00
27032;BME280;14580;52.918;9.214;2023-02-28T08:47:27;61451.03;;;-140.63;100.00
27032;BME280;14580;52.918;9.214;2023-02-28T08:49:54;61451.03;;;-140.63;100.00
27032;BME280;14580;52.918;9.214;2023-02-28T08:52:21;61451.03;;;-140.63;100.00
27032;BME280;14580;52.918;9.214;2023-02-28T08:54:50;61451.03;;;-140.63;100.00
27032;BME280;14580;52.918;9.214;2023-02-28T08:57:17;61451.03;;;-140.63;100.00
27032;BME280;14580;52.918;9.214;2023-02-28T08:59:43;61451.03;;;-140.63;100.00
27032;BME280;14580;52.918;9.214;2023-02-28T09:02:14;61451.03;;;-140.63;100.00
27032;BME280;14580;52.918;9.214;2023-02-28T09:04:41;61451.03;;;-140.63;100.00
27032;BME280;14580;52.918;9.214;2023-02-28T09:07:08;61451.03;;;-140.63;100.00
27032;BME280;14580;52.918;9.214;2023-02-28T09:09:34;61451.03;;;-140.63;100.00
27032;BME280;14580;52.918;9.214;2023-02-28T09:12:01;61451.03;;;-140.63;100.00
27032;BME280;14580;52.918;9.214;2023-02-28T09:14:28;61451.03;;;-140.63;100.00
27032;BME280;14580;52.918;9.214;2023-02-28T09:16:56;61451.03;;;-140.63;100.00
27032;BME280;14580;52.918;9.214;2023-02-28T09:19:24;61451.03;;;-140.63;100.00
27032;BME280;14580;52.918;9.214;2023-02-28T09:21:50;61451.03;;;-140.63;100.00
27032;BME280;14580;52.918;9.214;2023-02-28T09:24:41;61451.03;;;-140.63;100.00
27032;BME280;14580;52.918;9.214;2023-02-28T09:27:07;61451.03;;;-140.63;100.00
27032;BME280;14580;52.918;9.214;2023-02-28T09:29:34;61451.03;;;-140.63;100.00
27032;BME280;14580;52.918;9.214;2023-02-28T09:32:02;61451.03;;;-140.63;100.00
27032;BME280;14580;52.918;9.214;2023-02-28T09:34:28;62526.09;;;-0.02;59.81
27032;BME280;14580;52.918;9.214;2023-02-28T09:36:56;62587.34;;;0.55;59.31
27032;BME280;14580;52.918;9.214;2023-02-28T09:39:23;62646.03;;;1.11;59.75
27032;BME280;14580;52.918;9.214;2023-02-28T09:41:54;62701.25;;;1.63;59.21
27032;BME280;14580;52.918;9.214;2023-02-28T09:44:34;62752.47;;;2.11;57.91
27032;BME280;14580;52.918;9.214;2023-02-28T09:47:13;62801.56;;;2.57;57.78
27032;BME280;14580;52.918;9.214;2023-02-28T09:49:47;62847.19;;;3.00;57.41
27032;BME280;14580;52.918;9.214;2023-02-28T09:52:27;62891.56;;;3.42;58.03
27032;BME280;14580;52.918;9.214;2023-02-28T09:54:59;62891.56;;;3.42;58.03
27032;BME280;14580;52.918;9.214;2023-02-28T09:57:37;62936.81;;;3.84;57.60
27032;BME280;14580;52.918;9.214;2023-02-28T10:06:20;63061.72;;;5.02;55.69
27032;BME280;14580;52.918;9.214;2023-02-28T10:08:56;63061.72;;;5.02;55.69
27032;BME280;14580;52.918;9.214;2023-02-28T10:11:26;63100.41;;;5.38;55.54
27032;BME280;14580;52.918;9.214;2023-02-28T10:14:19;63100.41;;;5.38;55.54
27032;BME280;14580;52.918;9.214;2023-02-28T10:16:52;63100.41;;;5.38;55.54
27032;BME280;14580;52.918;9.214;2023-02-28T10:19:26;63100.41;;;5.38;55.54
27032;BME280;14580;52.918;9.214;2023-02-28T10:22:21;63139.53;;;5.75;52.65
27032;BME280;14580;52.918;9.214;2023-02-28T10:24:53;63139.53;;;5.75;52.65
27032;BME280;14580;52.918;9.214;2023-02-28T10:27:26;63175.72;;;6.09;52.82
27032;BME280;14580;52.918;9.214;2023-02-28T10:29:58;63210.50;;;6.42;52.59
27032;BME280;14580;52.918;9.214;2023-02-28T10:32:34;63245.59;;;6.75;47.93
27032;BME280;14580;52.918;9.214;2023-02-28T10:35:19;63277.91;;;7.06;46.39
27032;BME280;14580;52.918;9.214;2023-02-28T10:37:56;63309.41;;;7.35;46.78
27032;BME280;14580;52.918;9.214;2023-02-28T10:43:04;63366.31;;;7.89;45.90
27032;BME280;14580;52.918;9.214;2023-02-28T10:45:36;63393.31;;;8.14;47.54
27032;BME280;14580;52.918;9.214;2023-02-28T10:48:45;63420.38;;;8.39;46.05
27032;BME280;14580;52.918;9.214;2023-02-28T10:51:18;63444.78;;;8.62;44.97
27032;BME280;14580;52.918;9.214;2023-02-28T10:53:53;63467.75;;;8.84;44.47
27032;BME280;14580;52.918;9.214;2023-02-28T10:56:24;63488.88;;;9.04;44.40
27032;BME280;14580;52.918;9.214;2023-02-28T11:01:44;63524.47;;;9.38;45.24
27032;BME280;14580;52.918;9.214;2023-02-28T11:04:33;63540.53;;;9.53;43.77
27032;BME280;14580;52.918;9.214;2023-02-28T11:07:23;63557.94;;;9.69;45.49
27032;BME280;14580;52.918;9.214;2023-02-28T11:09:56;63572.91;;;9.83;43.32
27032;BME280;14580;52.918;9.214;2023-02-28T11:12:37;63588.13;;;9.97;43.84
27032;BME280;14580;52.918;9.214;2023-02-28T11:18:00;63612.50;;;10.20;42.83
27032;BME280;14580;52.918;9.214;2023-02-28T11:20:33;63620.56;;;10.28;42.87
27032;BME280;14580;52.918;9.214;2023-02-28T11:23:03;63630.50;;;10.37;42.78
27032;BME280;14580;52.918;9.214;2023-02-28T11:25:37;63640.78;;;10.46;43.22
27032;BME280;14580;52.918;9.214;2023-02-28T11:28:09;63652.28;;;10.57;42.95
27032;BME280;14580;52.918;9.214;2023-02-28T11:31:05;63660.78;;;10.65;42.33
27032;BME280;14580;52.918;9.214;2023-02-28T11:33:54;63668.47;;;10.72;42.20
27032;BME280;14580;52.918;9.214;2023-02-28T11:36:29;63675.38;;;10.78;42.82
27032;BME280;14580;52.918;9.214;2023-02-28T11:39:11;63680.84;;;10.83;42.63
27032;BME280;14580;52.918;9.214;2023-02-28T11:50:15;63707.66;;;11.09;43.13
27032;BME280;14580;52.918;9.214;2023-02-28T11:52:55;63714.53;;;11.15;42.56
27032;BME280;14580;52.918;9.214;2023-02-28T11:56:06;63718.31;;;11.19;42.13
27032;BME280;14580;52.918;9.214;2023-02-28T12:02:02;63722.63;;;11.23;42.33
27032;BME280;14580;52.918;9.214;2023-02-28T12:05:16;63724.38;;;11.24;42.49
27032;BME280;14580;52.918;9.214;2023-02-28T12:14:28;63729.84;;;11.29;42.71
27032;BME280;14580;52.918;9.214;2023-02-28T12:25:54;63729.94;;;11.29;43.86
27032;BME280;14580;52.918;9.214;2023-02-28T12:28:32;63726.97;;;11.26;44.45
27032;BME280;14580;52.918;9.214;2023-02-28T12:31:23;63724.09;;;11.23;44.64
27032;BME280;14580;52.918;9.214;2023-02-28T12:33:59;63723.16;;;11.23;44.37
27032;BME280;14580;52.918;9.214;2023-02-28T12:36:28;63721.97;;;11.21;44.38
27032;BME280;14580;52.918;9.214;2023-02-28T12:39:34;63721.59;;;11.21;44.48
27032;BME280;14580;52.918;9.214;2023-02-28T12:42:30;63719.53;;;11.19;44.24
27032;BME280;14580;52.918;9.214;2023-02-28T12:45:19;63718.25;;;11.18;44.58
27032;BME280;14580;52.918;9.214;2023-02-28T12:47:52;63716.88;;;11.17;44.98
27032;BME280;14580;52.918;9.214;2023-02-28T12:50:23;63715.94;;;11.16;44.98
27032;BME280;14580;52.918;9.214;2023-02-28T12:55:56;63710.06;;;11.10;44.29
27032;BME280;14580;52.918;9.214;2023-02-28T12:58:41;63709.50;;;11.10;45.32
27032;BME280;14580;52.918;9.214;2023-02-28T13:04:32;63710.09;;;11.10;45.26
27032;BME280;14580;52.918;9.214;2023-02-28T13:10:05;63713.09;;;11.14;44.77
27032;BME280;14580;52.918;9.214;2023-02-28T13:12:34;63714.38;;;11.15;43.46
27032;BME280;14580;52.918;9.214;2023-02-28T13:15:21;63719.00;;;11.19;43.79
27032;BME280;14580;52.918;9.214;2023-02-28T13:17:53;63722.16;;;11.22;43.06
27032;BME280;14580;52.918;9.214;2023-02-28T13:20:36;63725.78;;;11.26;43.64
27032;BME280;14580;52.918;9.214;2023-02-28T13:23:55;63731.38;;;11.31;43.62
27032;BME280;14580;52.918;9.214;2023-02-28T13:29:39;63741.00;;;11.40;43.59
27032;BME280;14580;52.918;9.214;2023-02-28T13:39:52;63765.78;;;11.64;42.90
27032;BME280;14580;52.918;9.214;2023-02-28T13:47:55;63785.75;;;11.83;41.57
27032;BME280;14580;52.918;9.214;2023-02-28T13:50:39;63789.59;;;11.87;40.77
27032;BME280;14580;52.918;9.214;2023-02-28T13:53:40;63795.59;;;11.92;42.18
27032;BME280;14580;52.918;9.214;2023-02-28T13:56:31;63800.50;;;11.97;42.15
27032;BME280;14580;52.918;9.214;2023-02-28T14:02:08;63809.78;;;12.06;42.49
27032;BME280;14580;52.918;9.214;2023-02-28T14:05:05;63815.56;;;12.11;42.69
27032;BME280;14580;52.918;9.214;2023-02-28T14:07:45;63821.66;;;12.17;41.82
27032;BME280;14580;52.918;9.214;2023-02-28T14:10:31;63829.16;;;12.24;40.79
27032;BME280;14580;52.918;9.214;2023-02-28T14:15:59;63842.16;;;12.36;41.64
27032;BME280;14580;52.918;9.214;2023-02-28T14:18:40;63848.19;;;12.42;40.33
27032;BME280;14580;52.918;9.214;2023-02-28T14:21:23;63851.19;;;12.45;40.13
27032;BME280;14580;52.918;9.214;2023-02-28T14:33:41;63863.81;;;12.57;42.68
27032;BME280;14580;52.918;9.214;2023-02-28T14:36:26;63866.47;;;12.59;42.49
27032;BME280;14580;52.918;9.214;2023-02-28T14:38:59;63867.44;;;12.60;41.93
27032;BME280;14580;52.918;9.214;2023-02-28T14:41:32;63868.56;;;12.61;42.92
27032;BME280;14580;52.918;9.214;2023-02-28T14:44:12;63869.81;;;12.63;42.44
27032;BME280;14580;52.918;9.214;2023-02-28T14:46:41;63872.50;;;12.66;42.30
27032;BME280;14580;52.918;9.214;2023-02-28T14:49:36;63874.84;;;12.68;42.17
27032;BME280;14580;52.918;9.214;2023-02-28T14:52:19;63874.31;;;12.67;42.57
27032;BME280;14580;52.918;9.214;2023-02-28T14:54:51;63874.94;;;12.68;42.90
27032;BME280;14580;52.918;9.214;2023-02-28T14:57:30;63874.66;;;12.68;43.29
27032;BME280;14580;52.918;9.214;2023-02-28T15:00:09;63873.63;;;12.67;42.25
27032;BME280;14580;52.918;9.214;2023-02-28T15:02:39;63873.94;;;12.67;42.36
27032;BME280;14580;52.918;9.214;2023-02-28T15:07:45;63871.25;;;12.65;42.68
27032;BME280;14580;52.918;9.214;2023-02-28T15:10:25;63867.81;;;12.62;43.16
27032;BME280;14580;52.918;9.214;2023-02-28T15:18:03;63853.22;;;12.49;43.73
27032;BME280;14580;52.918;9.214;2023-02-28T15:20:32;63847.28;;;12.43;43.42
27032;BME280;14580;52.918;9.214;2023-02-28T15:23:00;63841.06;;;12.37;43.66
27032;BME280;14580;52.918;9.214;2023-02-28T15:25:28;63834.00;;;12.30;44.09
27032;BME280;14580;52.918;9.214;2023-02-28T15:27:55;63825.78;;;12.23;45.50
27032;BME280;14580;52.918;9.214;2023-02-28T15:30:32;63818.13;;;12.16;45.97
27032;BME280;14580;52.918;9.214;2023-02-28T15:33:04;63808.47;;;12.06;46.67
27032;BME280;14580;52.918;9.214;2023-02-28T15:35:33;63798.44;;;11.97;47.49
27032;BME280;14580;52.918;9.214;2023-02-28T15:38:25;63788.38;;;11.88;46.39
27032;BME280;14580;52.918;9.214;2023-02-28T15:40:56;63778.22;;;11.78;47.09
27032;BME280;14580;52.918;9.214;2023-02-28T15:43:37;63767.44;;;11.68;47.03
27032;BME280;14580;52.918;9.214;2023-02-28T15:46:13;63754.41;;;11.56;47.72
27032;BME280;14580;52.918;9.214;2023-02-28T15:48:53;63743.22;;;11.45;47.96
27032;BME280;14580;52.918;9.214;2023-02-28T15:51:35;63732.41;;;11.35;48.55
27032;BME280;14580;52.918;9.214;2023-02-28T15:54:28;63721.47;;;11.25;49.02
27032;BME280;14580;52.918;9.214;2023-02-28T15:56:59;63709.38;;;11.13;48.99
27032;BME280;14580;52.918;9.214;2023-02-28T15:59:30;61451.03;;;-140.63;100.00
27032;BME280;14580;52.918;9.214;2023-02-28T16:05:34;61451.03;;;-140.63;100.00
27032;BME280;14580;52.918;9.214;2023-02-28T16:09:16;61451.03;;;-140.63;100.00
27032;BME280;14580;52.918;9.214;2023-02-28T16:12:44;61451.03;;;-140.63;100.00
27032;BME280;14580;52.918;9.214;2023-02-28T16:16:23;61451.03;;;-140.63;100.00
27032;BME280;14580;52.918;9.214;2023-02-28T16:19:49;61451.03;;;-140.63;100.00
27032;BME280;14580;52.918;9.214;2023-02-28T16:23:13;61451.03;;;-140.63;100.00
27032;BME280;14580;52.918;9.214;2023-02-28T16:26:41;61451.03;;;-140.63;100.00
27032;BME280;14580;52.918;9.214;2023-02-28T16:30:14;61451.03;;;-140.63;100.00
27032;BME280;14580;52.918;9.214;2023-02-28T16:33:40;61451.03;;;-140.63;100.00
27032;BME280;14580;52.918;9.214;2023-02-28T16:37:14;61451.03;;;-140.63;100.00
27032;BME280;14580;52.918;9.214;2023-02-28T16:40:39;61451.03;;;-140.63;100.00
27032;BME280;14580;52.918;9.214;2023-02-28T16:43:50;61451.03;;;-140.63;100.00
27032;BME280;14580;52.918;9.214;2023-02-28T16:47:16;61451.03;;;-140.63;100.00
27032;BME280;14580;52.918;9.214;2023-02-28T16:50:41;61451.03;;;-140.63;100.00
27032;BME280;14580;52.918;9.214;2023-02-28T16:54:07;61451.03;;;-140.63;100.00
27032;BME280;14580;52.918;9.214;2023-02-28T16:57:33;61451.03;;;-140.63;100.00
27032;BME280;14580;52.918;9.214;2023-02-28T17:00:57;61451.03;;;-140.63;100.00
27032;BME280;14580;52.918;9.214;2023-02-28T17:03:58;61451.03;;;-140.63;100.00
27032;BME280;14580;52.918;9.214;2023-02-28T17:07:25;61451.03;;;-140.63;100.00
27032;BME280;14580;52.918;9.214;2023-02-28T17:10:50;61451.03;;;-140.63;100.00
27032;BME280;14580;52.918;9.214;2023-02-28T17:14:15;61451.03;;;-140.63;100.00